sensor_id;sensor_type;location;lat;lon;timestamp;P1;durP1;ratioP1;P2;durP2;ratioP2
3343;SDS011;1685;53.104;8.228;2022-12-10T00:01:45;53.57;;;23.47;;
3343;SDS011;1685;53.104;8.228;2022-12-10T00:04:13;59.30;;;26.83;;
3343;SDS011;1685;53.104;8.228;2022-12-10T00:06:40;63.77;;;25.83;;
3343;SDS011;1685;53.104;8.228;2022-12-10T00:09:10;50.53;;;23.67;;
3343;SDS011;1685;53.104;8.228;2022-12-10T00:11:38;57.03;;;25.33;;
3343;SDS011;1685;53.104;8.228;2022-12-10T00:14:06;56.87;;;26.17;;
3343;SDS011;1685;53.104;8.228;2022-12-10T00:16:34;54.30;;;25.33;;
3343;SDS011;1685;53.104;8.228;2022-12-10T00:19:01;57.63;;;26.03;;
3343;SDS011;1685;53.104;8.228;2022-12-10T00:21:29;53.13;;;25.40;;
3343;SDS011;1685;53.104;8.228;2022-12-10T00:23:57;57.57;;;25.57;;
3343;SDS011;1685;53.104;8.228;2022-12-10T00:26:25;59.90;;;26.23;;
3343;SDS011;1685;53.104;8.228;2022-12-10T00:28:53;59.73;;;26.17;;
3343;SDS011;1685;53.104;8.228;2022-12-10T00:31:21;67.63;;;26.83;;
3343;SDS011;1685;53.104;8.228;2022-12-10T00:33:52;54.50;;;26.27;;
3343;SDS011;1685;53.104;8.228;2022-12-10T00:36:21;61.53;;;26.27;;
3343;SDS011;1685;53.104;8.228;2022-12-10T00:38:49;61.43;;;25.90;;
3343;SDS011;1685;53.104;8.228;2022-12-10T00:41:16;59.13;;;24.40;;
3343;SDS011;1685;53.104;8.228;2022-12-10T00:43:44;67.87;;;27.10;;
3343;SDS011;1685;53.104;8.228;2022-12-10T00:46:11;54.23;;;24.37;;
3343;SDS011;1685;53.104;8.228;2022-12-10T00:48:38;66.70;;;26.77;;
3343;SDS011;1685;53.104;8.228;2022-12-10T00:51:07;55.30;;;25.00;;
3343;SDS011;1685;53.104;8.228;2022-12-10T00:53:36;62.53;;;25.97;;
3343;SDS011;1685;53.104;8.228;2022-12-10T00:56:05;54.53;;;26.30;;
3343;SDS011;1685;53.104;8.228;2022-12-10T00:58:33;61.10;;;27.10;;
3343;SDS011;1685;53.104;8.228;2022-12-10T01:01:07;58.30;;;25.90;;
3343;SDS011;1685;53.104;8.228;2022-12-10T01:03:35;62.77;;;26.80;;
3343;SDS011;1685;53.104;8.228;2022-12-10T01:06:13;64.67;;;26.47;;
3343;SDS011;1685;53.104;8.228;2022-12-10T01:08:41;72.03;;;26.23;;
3343;SDS011;1685;53.104;8.228;2022-12-10T01:11:08;52.30;;;25.27;;
3343;SDS011;1685;53.104;8.228;2022-12-10T01:13:36;62.33;;;27.17;;
3343;SDS011;1685;53.104;8.228;2022-12-10T01:16:03;68.77;;;27.47;;
3343;SDS011;1685;53.104;8.228;2022-12-10T01:18:31;65.80;;;26.77;;
3343;SDS011;1685;53.104;8.228;2022-12-10T01:21:00;67.43;;;27.20;;
3343;SDS011;1685;53.104;8.228;2022-12-10T01:23:29;57.63;;;25.37;;
3343;SDS011;1685;53.104;8.228;2022-12-10T01:25:58;56.43;;;26.30;;
3343;SDS011;1685;53.104;8.228;2022-12-10T01:28:27;60.10;;;26.93;;
3343;SDS011;1685;53.104;8.228;2022-12-10T01:30:55;59.93;;;26.30;;
3343;SDS011;1685;53.104;8.228;2022-12-10T01:33:22;62.00;;;26.43;;
3343;SDS011;1685;53.104;8.228;2022-12-10T01:35:49;48.40;;;23.60;;
3343;SDS011;1685;53.104;8.228;2022-12-10T01:38:16;60.30;;;25.00;;
3343;SDS011;1685;53.104;8.228;2022-12-10T01:40:44;63.90;;;28.17;;
3343;SDS011;1685;53.104;8.228;2022-12-10T01:43:11;62.63;;;26.53;;
3343;SDS011;1685;53.104;8.228;2022-12-10T01:45:40;63.20;;;26.60;;
3343;SDS011;1685;53.104;8.228;2022-12-10T01:48:06;56.87;;;25.50;;
3343;SDS011;1685;53.104;8.228;2022-12-10T01:50:33;53.60;;;25.77;;
3343;SDS011;1685;53.104;8.228;2022-12-10T01:53:00;51.00;;;23.50;;
3343;SDS011;1685;53.104;8.228;2022-12-10T01:55:37;58.90;;;26.47;;
3343;SDS011;1685;53.104;8.228;2022-12-10T01:58:11;56.67;;;24.80;;
3343;SDS011;1685;53.104;8.228;2022-12-10T02:00:41;54.20;;;24.83;;
3343;SDS011;1685;53.104;8.228;2022-12-10T02:03:16;53.00;;;23.67;;
3343;SDS011;1685;53.104;8.228;2022-12-10T02:05:51;62.37;;;26.70;;
3343;SDS011;1685;53.104;8.228;2022-12-10T02:08:24;66.67;;;26.70;;
3343;SDS011;1685;53.104;8.228;2022-12-10T02:10:58;57.20;;;24.73;;
3343;SDS011;1685;53.104;8.228;2022-12-10T02:13:33;61.63;;;26.27;;
3343;SDS011;1685;53.104;8.228;2022-12-10T02:16:06;60.27;;;26.20;;
3343;SDS011;1685;53.104;8.228;2022-12-10T02:18:37;55.20;;;24.27;;
3343;SDS011;1685;53.104;8.228;2022-12-10T02:21:08;57.80;;;25.50;;
3343;SDS011;1685;53.104;8.228;2022-12-10T02:23:39;57.47;;;25.43;;
3343;SDS011;1685;53.104;8.228;2022-12-10T02:26:11;53.17;;;25.80;;
3343;SDS011;1685;53.104;8.228;2022-12-10T02:28:45;54.80;;;25.83;;
3343;SDS011;1685;53.104;8.228;2022-12-10T02:31:19;58.43;;;26.00;;
3343;SDS011;1685;53.104;8.228;2022-12-10T02:33:50;61.17;;;28.37;;
3343;SDS011;1685;53.104;8.228;2022-12-10T02:36:23;63.47;;;26.47;;
3343;SDS011;1685;53.104;8.228;2022-12-10T02:38:53;62.13;;;25.37;;
3343;SDS011;1685;53.104;8.228;2022-12-10T02:41:22;56.57;;;25.57;;
3343;SDS011;1685;53.104;8.228;2022-12-10T02:43:53;60.90;;;27.07;;
3343;SDS011;1685;53.104;8.228;2022-12-10T02:46:23;57.63;;;26.00;;
3343;SDS011;1685;53.104;8.228;2022-12-10T02:48:53;58.30;;;27.37;;
3343;SDS011;1685;53.104;8.228;2022-12-10T02:51:20;66.47;;;25.67;;
3343;SDS011;1685;53.104;8.228;2022-12-10T02:53:47;61.73;;;27.00;;
3343;SDS011;1685;53.104;8.228;2022-12-10T02:56:15;69.07;;;28.20;;
3343;SDS011;1685;53.104;8.228;2022-12-10T02:58:49;57.00;;;26.80;;
3343;SDS011;1685;53.104;8.228;2022-12-10T03:01:31;61.80;;;27.13;;
3343;SDS011;1685;53.104;8.228;2022-12-10T03:04:05;64.47;;;27.80;;
3343;SDS011;1685;53.104;8.228;2022-12-10T03:06:38;59.10;;;25.60;;
3343;SDS011;1685;53.104;8.228;2022-12-10T03:09:11;57.00;;;27.70;;
3343;SDS011;1685;53.104;8.228;2022-12-10T03:11:42;67.23;;;28.33;;
3343;SDS011;1685;53.104;8.228;2022-12-10T03:14:12;64.00;;;26.80;;
3343;SDS011;1685;53.104;8.228;2022-12-10T03:16:43;56.30;;;25.80;;
3343;SDS011;1685;53.104;8.228;2022-12-10T03:19:15;63.23;;;28.57;;
3343;SDS011;1685;53.104;8.228;2022-12-10T03:21:44;59.90;;;28.33;;
3343;SDS011;1685;53.104;8.228;2022-12-10T03:24:14;60.23;;;28.33;;
3343;SDS011;1685;53.104;8.228;2022-12-10T03:26:43;55.57;;;27.13;;
3343;SDS011;1685;53.104;8.228;2022-12-10T03:29:13;60.43;;;26.43;;
3343;SDS011;1685;53.104;8.228;2022-12-10T03:31:46;54.60;;;26.90;;
3343;SDS011;1685;53.104;8.228;2022-12-10T03:34:15;54.67;;;26.33;;
3343;SDS011;1685;53.104;8.228;2022-12-10T03:36:42;57.73;;;28.07;;
3343;SDS011;1685;53.104;8.228;2022-12-10T03:39:11;56.60;;;25.97;;
3343;SDS011;1685;53.104;8.228;2022-12-10T03:41:38;57.07;;;28.57;;
3343;SDS011;1685;53.104;8.228;2022-12-10T03:44:05;55.40;;;27.03;;
3343;SDS011;1685;53.104;8.228;2022-12-10T03:46:33;57.63;;;27.30;;
3343;SDS011;1685;53.104;8.228;2022-12-10T03:49:02;58.43;;;28.10;;
3343;SDS011;1685;53.104;8.228;2022-12-10T03:51:29;65.90;;;28.20;;
3343;SDS011;1685;53.104;8.228;2022-12-10T03:53:57;55.63;;;25.83;;
3343;SDS011;1685;53.104;8.228;2022-12-10T03:56:24;55.47;;;26.93;;
3343;SDS011;1685;53.104;8.228;2022-12-10T03:58:51;51.90;;;26.10;;
3343;SDS011;1685;53.104;8.228;2022-12-10T04:01:18;50.63;;;25.30;;
3343;SDS011;1685;53.104;8.228;2022-12-10T04:03:45;52.23;;;27.40;;
3343;SDS011;1685;53.104;8.228;2022-12-10T04:06:14;47.90;;;23.80;;
3343;SDS011;1685;53.104;8.228;2022-12-10T04:08:43;52.67;;;26.13;;
3343;SDS011;1685;53.104;8.228;2022-12-10T04:11:10;50.30;;;24.83;;
3343;SDS011;1685;53.104;8.228;2022-12-10T04:13:38;47.43;;;24.43;;
3343;SDS011;1685;53.104;8.228;2022-12-10T04:16:23;50.70;;;24.90;;
3343;SDS011;1685;53.104;8.228;2022-12-10T04:18:54;67.20;;;26.20;;
3343;SDS011;1685;53.104;8.228;2022-12-10T04:21:22;51.43;;;25.97;;
3343;SDS011;1685;53.104;8.228;2022-12-10T04:24:07;74.60;;;25.67;;
3343;SDS011;1685;53.104;8.228;2022-12-10T04:26:52;47.57;;;24.70;;
3343;SDS011;1685;53.104;8.228;2022-12-10T04:29:20;48.87;;;25.70;;
3343;SDS011;1685;53.104;8.228;2022-12-10T04:31:48;52.70;;;24.70;;
3343;SDS011;1685;53.104;8.228;2022-12-10T04:34:14;48.97;;;24.57;;
3343;SDS011;1685;53.104;8.228;2022-12-10T04:36:43;52.67;;;24.93;;
3343;SDS011;1685;53.104;8.228;2022-12-10T04:39:10;60.13;;;26.80;;
3343;SDS011;1685;53.104;8.228;2022-12-10T04:41:38;65.20;;;28.87;;
3343;SDS011;1685;53.104;8.228;2022-12-10T04:44:05;46.77;;;23.40;;
3343;SDS011;1685;53.104;8.228;2022-12-10T04:46:32;56.43;;;28.40;;
3343;SDS011;1685;53.104;8.228;2022-12-10T04:49:00;53.50;;;25.30;;
3343;SDS011;1685;53.104;8.228;2022-12-10T04:51:27;54.23;;;27.10;;
3343;SDS011;1685;53.104;8.228;2022-12-10T04:53:55;52.27;;;26.97;;
3343;SDS011;1685;53.104;8.228;2022-12-10T04:56:22;50.10;;;24.33;;
3343;SDS011;1685;53.104;8.228;2022-12-10T04:58:49;48.63;;;25.97;;
3343;SDS011;1685;53.104;8.228;2022-12-10T05:01:16;50.33;;;25.47;;
3343;SDS011;1685;53.104;8.228;2022-12-10T05:03:44;56.43;;;24.90;;
3343;SDS011;1685;53.104;8.228;2022-12-10T05:06:12;53.47;;;24.83;;
3343;SDS011;1685;53.104;8.228;2022-12-10T05:08:40;48.37;;;25.13;;
3343;SDS011;1685;53.104;8.228;2022-12-10T05:11:09;49.40;;;24.27;;
3343;SDS011;1685;53.104;8.228;2022-12-10T05:13:38;49.93;;;25.40;;
3343;SDS011;1685;53.104;8.228;2022-12-10T05:16:06;50.73;;;25.93;;
3343;SDS011;1685;53.104;8.228;2022-12-10T05:18:35;38.87;;;21.57;;
3343;SDS011;1685;53.104;8.228;2022-12-10T05:21:03;52.53;;;23.13;;
3343;SDS011;1685;53.104;8.228;2022-12-10T05:23:32;52.00;;;24.77;;
3343;SDS011;1685;53.104;8.228;2022-12-10T05:25:59;54.50;;;26.03;;
3343;SDS011;1685;53.104;8.228;2022-12-10T05:28:29;53.50;;;24.50;;
3343;SDS011;1685;53.104;8.228;2022-12-10T05:30:56;59.93;;;27.50;;
3343;SDS011;1685;53.104;8.228;2022-12-10T05:33:23;51.77;;;25.67;;
3343;SDS011;1685;53.104;8.228;2022-12-10T05:35:51;55.53;;;26.73;;
3343;SDS011;1685;53.104;8.228;2022-12-10T05:38:19;54.97;;;26.00;;
3343;SDS011;1685;53.104;8.228;2022-12-10T05:40:46;47.67;;;23.77;;
3343;SDS011;1685;53.104;8.228;2022-12-10T05:43:13;45.03;;;23.40;;
3343;SDS011;1685;53.104;8.228;2022-12-10T05:45:42;52.37;;;25.20;;
3343;SDS011;1685;53.104;8.228;2022-12-10T05:48:09;48.60;;;25.50;;
3343;SDS011;1685;53.104;8.228;2022-12-10T05:50:36;53.37;;;25.40;;
3343;SDS011;1685;53.104;8.228;2022-12-10T05:53:03;55.33;;;25.23;;
3343;SDS011;1685;53.104;8.228;2022-12-10T05:55:30;51.77;;;24.97;;
3343;SDS011;1685;53.104;8.228;2022-12-10T05:57:57;52.00;;;26.17;;
3343;SDS011;1685;53.104;8.228;2022-12-10T06:00:25;54.17;;;27.27;;
3343;SDS011;1685;53.104;8.228;2022-12-10T06:02:53;55.33;;;26.27;;
3343;SDS011;1685;53.104;8.228;2022-12-10T06:05:20;54.33;;;27.70;;
3343;SDS011;1685;53.104;8.228;2022-12-10T06:07:47;53.43;;;26.13;;
3343;SDS011;1685;53.104;8.228;2022-12-10T06:10:14;51.37;;;25.50;;
3343;SDS011;1685;53.104;8.228;2022-12-10T06:12:41;53.40;;;26.17;;
3343;SDS011;1685;53.104;8.228;2022-12-10T06:15:08;53.40;;;25.53;;
3343;SDS011;1685;53.104;8.228;2022-12-10T06:17:35;59.10;;;26.40;;
3343;SDS011;1685;53.104;8.228;2022-12-10T06:20:04;46.20;;;23.80;;
3343;SDS011;1685;53.104;8.228;2022-12-10T06:22:32;56.30;;;25.90;;
3343;SDS011;1685;53.104;8.228;2022-12-10T06:24:59;52.07;;;25.43;;
3343;SDS011;1685;53.104;8.228;2022-12-10T06:27:26;53.33;;;25.30;;
3343;SDS011;1685;53.104;8.228;2022-12-10T06:29:53;55.27;;;25.33;;
3343;SDS011;1685;53.104;8.228;2022-12-10T06:32:20;47.80;;;24.90;;
3343;SDS011;1685;53.104;8.228;2022-12-10T06:34:47;47.83;;;24.87;;
3343;SDS011;1685;53.104;8.228;2022-12-10T06:37:15;51.83;;;26.53;;
3343;SDS011;1685;53.104;8.228;2022-12-10T06:39:42;51.77;;;25.17;;
3343;SDS011;1685;53.104;8.228;2022-12-10T06:42:08;50.40;;;24.40;;
3343;SDS011;1685;53.104;8.228;2022-12-10T06:44:35;48.67;;;26.33;;
3343;SDS011;1685;53.104;8.228;2022-12-10T06:47:02;48.87;;;24.67;;
3343;SDS011;1685;53.104;8.228;2022-12-10T06:49:28;58.67;;;25.90;;
3343;SDS011;1685;53.104;8.228;2022-12-10T06:51:55;53.20;;;26.97;;
3343;SDS011;1685;53.104;8.228;2022-12-10T06:54:24;48.83;;;26.10;;
3343;SDS011;1685;53.104;8.228;2022-12-10T06:56:50;56.10;;;26.50;;
3343;SDS011;1685;53.104;8.228;2022-12-10T06:59:17;50.23;;;26.30;;
3343;SDS011;1685;53.104;8.228;2022-12-10T07:01:45;56.83;;;28.50;;
3343;SDS011;1685;53.104;8.228;2022-12-10T07:04:12;51.10;;;25.07;;
3343;SDS011;1685;53.104;8.228;2022-12-10T07:06:39;59.03;;;27.63;;
3343;SDS011;1685;53.104;8.228;2022-12-10T07:09:06;55.57;;;27.87;;
3343;SDS011;1685;53.104;8.228;2022-12-10T07:11:36;57.10;;;27.10;;
3343;SDS011;1685;53.104;8.228;2022-12-10T07:14:03;56.20;;;28.23;;
3343;SDS011;1685;53.104;8.228;2022-12-10T07:16:30;55.13;;;27.80;;
3343;SDS011;1685;53.104;8.228;2022-12-10T07:18:58;57.33;;;28.80;;
3343;SDS011;1685;53.104;8.228;2022-12-10T07:21:27;58.83;;;27.47;;
3343;SDS011;1685;53.104;8.228;2022-12-10T07:23:56;59.53;;;29.40;;
3343;SDS011;1685;53.104;8.228;2022-12-10T07:26:24;53.67;;;28.60;;
3343;SDS011;1685;53.104;8.228;2022-12-10T07:28:52;55.83;;;27.70;;
3343;SDS011;1685;53.104;8.228;2022-12-10T07:31:19;58.07;;;28.90;;
3343;SDS011;1685;53.104;8.228;2022-12-10T07:33:47;64.40;;;29.77;;
3343;SDS011;1685;53.104;8.228;2022-12-10T07:36:15;59.00;;;28.83;;
3343;SDS011;1685;53.104;8.228;2022-12-10T07:38:42;61.10;;;30.00;;
3343;SDS011;1685;53.104;8.228;2022-12-10T07:41:10;63.67;;;27.00;;
3343;SDS011;1685;53.104;8.228;2022-12-10T07:43:39;52.27;;;27.30;;
3343;SDS011;1685;53.104;8.228;2022-12-10T07:46:09;57.87;;;27.80;;
3343;SDS011;1685;53.104;8.228;2022-12-10T07:48:37;57.03;;;25.90;;
3343;SDS011;1685;53.104;8.228;2022-12-10T07:51:06;59.80;;;27.63;;
3343;SDS011;1685;53.104;8.228;2022-12-10T07:53:33;54.80;;;25.57;;
3343;SDS011;1685;53.104;8.228;2022-12-10T07:56:00;56.80;;;26.10;;
3343;SDS011;1685;53.104;8.228;2022-12-10T07:58:28;57.33;;;27.37;;
3343;SDS011;1685;53.104;8.228;2022-12-10T08:00:55;51.80;;;27.00;;
3343;SDS011;1685;53.104;8.228;2022-12-10T08:03:23;61.30;;;27.30;;
3343;SDS011;1685;53.104;8.228;2022-12-10T08:05:59;53.90;;;26.93;;
3343;SDS011;1685;53.104;8.228;2022-12-10T08:08:26;55.97;;;26.53;;
3343;SDS011;1685;53.104;8.228;2022-12-10T08:10:53;56.00;;;26.90;;
3343;SDS011;1685;53.104;8.228;2022-12-10T08:13:20;58.53;;;26.83;;
3343;SDS011;1685;53.104;8.228;2022-12-10T08:15:47;57.03;;;29.33;;
3343;SDS011;1685;53.104;8.228;2022-12-10T08:18:14;65.33;;;26.77;;
3343;SDS011;1685;53.104;8.228;2022-12-10T08:20:43;55.83;;;27.07;;
3343;SDS011;1685;53.104;8.228;2022-12-10T08:23:10;63.73;;;27.47;;
3343;SDS011;1685;53.104;8.228;2022-12-10T08:25:36;57.27;;;28.00;;
3343;SDS011;1685;53.104;8.228;2022-12-10T08:28:03;54.77;;;27.57;;
3343;SDS011;1685;53.104;8.228;2022-12-10T08:30:30;58.33;;;28.13;;
3343;SDS011;1685;53.104;8.228;2022-12-10T08:32:57;69.13;;;28.73;;
3343;SDS011;1685;53.104;8.228;2022-12-10T08:35:24;54.80;;;28.30;;
3343;SDS011;1685;53.104;8.228;2022-12-10T08:37:52;49.70;;;25.43;;
3343;SDS011;1685;53.104;8.228;2022-12-10T08:40:19;53.30;;;26.00;;
3343;SDS011;1685;53.104;8.228;2022-12-10T08:42:45;54.67;;;25.50;;
3343;SDS011;1685;53.104;8.228;2022-12-10T08:45:12;54.07;;;25.77;;
3343;SDS011;1685;53.104;8.228;2022-12-10T08:47:39;60.40;;;29.17;;
3343;SDS011;1685;53.104;8.228;2022-12-10T08:50:06;59.30;;;28.53;;
3343;SDS011;1685;53.104;8.228;2022-12-10T08:52:33;51.30;;;25.90;;
3343;SDS011;1685;53.104;8.228;2022-12-10T08:55:01;62.07;;;28.57;;
3343;SDS011;1685;53.104;8.228;2022-12-10T08:57:28;51.63;;;26.63;;
3343;SDS011;1685;53.104;8.228;2022-12-10T08:59:55;51.47;;;24.60;;
3343;SDS011;1685;53.104;8.228;2022-12-10T09:02:21;56.13;;;26.60;;
3343;SDS011;1685;53.104;8.228;2022-12-10T09:04:49;47.47;;;24.93;;
3343;SDS011;1685;53.104;8.228;2022-12-10T09:07:16;44.40;;;25.27;;
3343;SDS011;1685;53.104;8.228;2022-12-10T09:09:43;50.93;;;26.17;;
3343;SDS011;1685;53.104;8.228;2022-12-10T09:12:11;54.63;;;27.17;;
3343;SDS011;1685;53.104;8.228;2022-12-10T09:14:37;54.63;;;25.80;;
3343;SDS011;1685;53.104;8.228;2022-12-10T09:17:05;56.30;;;26.73;;
3343;SDS011;1685;53.104;8.228;2022-12-10T09:19:32;48.33;;;24.83;;
3343;SDS011;1685;53.104;8.228;2022-12-10T09:21:59;52.40;;;27.73;;
3343;SDS011;1685;53.104;8.228;2022-12-10T09:24:26;52.13;;;25.27;;
3343;SDS011;1685;53.104;8.228;2022-12-10T09:26:53;45.23;;;24.70;;
3343;SDS011;1685;53.104;8.228;2022-12-10T09:29:22;51.73;;;26.17;;
3343;SDS011;1685;53.104;8.228;2022-12-10T09:31:49;58.37;;;26.50;;
3343;SDS011;1685;53.104;8.228;2022-12-10T09:34:16;54.43;;;27.27;;
3343;SDS011;1685;53.104;8.228;2022-12-10T09:36:43;54.00;;;26.03;;
3343;SDS011;1685;53.104;8.228;2022-12-10T09:39:10;48.83;;;25.33;;
3343;SDS011;1685;53.104;8.228;2022-12-10T09:41:42;61.17;;;26.37;;
3343;SDS011;1685;53.104;8.228;2022-12-10T09:44:28;57.03;;;27.17;;
3343;SDS011;1685;53.104;8.228;2022-12-10T09:47:02;49.10;;;24.80;;
3343;SDS011;1685;53.104;8.228;2022-12-10T09:49:36;63.10;;;25.90;;
3343;SDS011;1685;53.104;8.228;2022-12-10T09:52:12;47.50;;;26.03;;
3343;SDS011;1685;53.104;8.228;2022-12-10T09:54:42;42.40;;;23.90;;
3343;SDS011;1685;53.104;8.228;2022-12-10T09:57:15;49.20;;;25.67;;
3343;SDS011;1685;53.104;8.228;2022-12-10T09:59:48;47.87;;;24.20;;
3343;SDS011;1685;53.104;8.228;2022-12-10T10:02:19;50.43;;;24.90;;
3343;SDS011;1685;53.104;8.228;2022-12-10T10:04:48;48.03;;;26.40;;
3343;SDS011;1685;53.104;8.228;2022-12-10T10:07:17;43.67;;;24.70;;
3343;SDS011;1685;53.104;8.228;2022-12-10T10:09:46;39.93;;;23.17;;
3343;SDS011;1685;53.104;8.228;2022-12-10T10:12:14;45.23;;;24.70;;
3343;SDS011;1685;53.104;8.228;2022-12-10T10:14:41;50.90;;;25.07;;
3343;SDS011;1685;53.104;8.228;2022-12-10T10:17:11;40.40;;;23.37;;
3343;SDS011;1685;53.104;8.228;2022-12-10T10:19:42;45.13;;;24.07;;
3343;SDS011;1685;53.104;8.228;2022-12-10T10:22:10;39.30;;;22.27;;
3343;SDS011;1685;53.104;8.228;2022-12-10T10:24:39;44.63;;;24.57;;
3343;SDS011;1685;53.104;8.228;2022-12-10T10:27:12;52.27;;;24.57;;
3343;SDS011;1685;53.104;8.228;2022-12-10T10:29:41;45.93;;;23.23;;
3343;SDS011;1685;53.104;8.228;2022-12-10T10:32:12;41.23;;;23.37;;
3343;SDS011;1685;53.104;8.228;2022-12-10T10:34:41;41.67;;;20.80;;
3343;SDS011;1685;53.104;8.228;2022-12-10T10:37:13;42.40;;;23.27;;
3343;SDS011;1685;53.104;8.228;2022-12-10T10:39:46;46.70;;;21.83;;
3343;SDS011;1685;53.104;8.228;2022-12-10T10:42:19;36.57;;;21.17;;
3343;SDS011;1685;53.104;8.228;2022-12-10T10:44:53;38.27;;;22.07;;
3343;SDS011;1685;53.104;8.228;2022-12-10T10:47:26;41.83;;;23.77;;
3343;SDS011;1685;53.104;8.228;2022-12-10T10:49:54;46.77;;;21.90;;
3343;SDS011;1685;53.104;8.228;2022-12-10T10:52:21;42.67;;;24.83;;
3343;SDS011;1685;53.104;8.228;2022-12-10T10:54:48;41.50;;;22.67;;
3343;SDS011;1685;53.104;8.228;2022-12-10T10:57:18;38.40;;;21.67;;
3343;SDS011;1685;53.104;8.228;2022-12-10T10:59:48;42.10;;;24.07;;
3343;SDS011;1685;53.104;8.228;2022-12-10T11:02:17;40.20;;;23.37;;
3343;SDS011;1685;53.104;8.228;2022-12-10T11:04:48;37.57;;;23.50;;
3343;SDS011;1685;53.104;8.228;2022-12-10T11:07:19;42.00;;;23.23;;
3343;SDS011;1685;53.104;8.228;2022-12-10T11:09:50;37.30;;;21.70;;
3343;SDS011;1685;53.104;8.228;2022-12-10T11:12:29;35.13;;;22.87;;
3343;SDS011;1685;53.104;8.228;2022-12-10T11:15:03;42.93;;;22.97;;
3343;SDS011;1685;53.104;8.228;2022-12-10T11:17:56;37.50;;;21.20;;
3343;SDS011;1685;53.104;8.228;2022-12-10T11:20:26;36.47;;;21.20;;
3343;SDS011;1685;53.104;8.228;2022-12-10T11:22:54;34.87;;;21.20;;
3343;SDS011;1685;53.104;8.228;2022-12-10T11:25:27;38.77;;;22.80;;
3343;SDS011;1685;53.104;8.228;2022-12-10T11:28:01;35.17;;;20.47;;
3343;SDS011;1685;53.104;8.228;2022-12-10T11:30:38;33.37;;;21.77;;
3343;SDS011;1685;53.104;8.228;2022-12-10T11:33:15;37.53;;;21.90;;
3343;SDS011;1685;53.104;8.228;2022-12-10T11:35:53;30.30;;;18.63;;
3343;SDS011;1685;53.104;8.228;2022-12-10T11:38:27;39.60;;;21.27;;
3343;SDS011;1685;53.104;8.228;2022-12-10T11:40:59;35.17;;;21.57;;
3343;SDS011;1685;53.104;8.228;2022-12-10T11:43:44;35.03;;;22.50;;
3343;SDS011;1685;53.104;8.228;2022-12-10T11:46:20;35.47;;;22.43;;
3343;SDS011;1685;53.104;8.228;2022-12-10T11:49:00;33.70;;;20.87;;
3343;SDS011;1685;53.104;8.228;2022-12-10T11:51:38;31.73;;;20.23;;
3343;SDS011;1685;53.104;8.228;2022-12-10T11:54:14;32.73;;;20.30;;
3343;SDS011;1685;53.104;8.228;2022-12-10T11:56:55;36.17;;;22.27;;
3343;SDS011;1685;53.104;8.228;2022-12-10T11:59:28;39.10;;;21.47;;
3343;SDS011;1685;53.104;8.228;2022-12-10T12:02:05;35.53;;;21.13;;
3343;SDS011;1685;53.104;8.228;2022-12-10T12:04:52;35.93;;;22.17;;
3343;SDS011;1685;53.104;8.228;2022-12-10T12:07:38;33.37;;;20.37;;
3343;SDS011;1685;53.104;8.228;2022-12-10T12:10:16;35.60;;;20.90;;
3343;SDS011;1685;53.104;8.228;2022-12-10T12:12:54;33.42;;;19.52;;
3343;SDS011;1685;53.104;8.228;2022-12-10T12:15:25;30.07;;;18.93;;
3343;SDS011;1685;53.104;8.228;2022-12-10T12:17:56;29.87;;;20.47;;
3343;SDS011;1685;53.104;8.228;2022-12-10T12:20:27;32.47;;;19.47;;
3343;SDS011;1685;53.104;8.228;2022-12-10T12:22:59;32.27;;;21.50;;
3343;SDS011;1685;53.104;8.228;2022-12-10T12:25:30;34.50;;;19.30;;
3343;SDS011;1685;53.104;8.228;2022-12-10T12:28:03;35.10;;;21.50;;
3343;SDS011;1685;53.104;8.228;2022-12-10T12:30:36;32.43;;;20.63;;
3343;SDS011;1685;53.104;8.228;2022-12-10T12:33:05;35.13;;;21.53;;
3343;SDS011;1685;53.104;8.228;2022-12-10T12:35:38;30.83;;;20.30;;
3343;SDS011;1685;53.104;8.228;2022-12-10T12:38:16;29.10;;;18.70;;
3343;SDS011;1685;53.104;8.228;2022-12-10T12:40:50;33.83;;;20.07;;
3343;SDS011;1685;53.104;8.228;2022-12-10T12:43:23;31.93;;;20.23;;
3343;SDS011;1685;53.104;8.228;2022-12-10T12:45:57;31.33;;;20.43;;
3343;SDS011;1685;53.104;8.228;2022-12-10T12:48:25;29.90;;;18.90;;
3343;SDS011;1685;53.104;8.228;2022-12-10T12:50:59;32.20;;;19.93;;
3343;SDS011;1685;53.104;8.228;2022-12-10T12:53:30;34.17;;;20.23;;
3343;SDS011;1685;53.104;8.228;2022-12-10T12:55:59;33.93;;;20.23;;
3343;SDS011;1685;53.104;8.228;2022-12-10T12:58:34;27.50;;;18.03;;
3343;SDS011;1685;53.104;8.228;2022-12-10T13:01:12;32.80;;;20.13;;
3343;SDS011;1685;53.104;8.228;2022-12-10T13:03:46;32.90;;;21.27;;
3343;SDS011;1685;53.104;8.228;2022-12-10T13:06:17;39.03;;;20.97;;
3343;SDS011;1685;53.104;8.228;2022-12-10T13:08:49;35.00;;;22.47;;
3343;SDS011;1685;53.104;8.228;2022-12-10T13:11:27;35.93;;;20.17;;
3343;SDS011;1685;53.104;8.228;2022-12-10T13:14:04;33.50;;;20.13;;
3343;SDS011;1685;53.104;8.228;2022-12-10T13:16:47;30.33;;;19.20;;
3343;SDS011;1685;53.104;8.228;2022-12-10T13:19:16;33.37;;;19.73;;
3343;SDS011;1685;53.104;8.228;2022-12-10T13:21:57;32.97;;;19.67;;
3343;SDS011;1685;53.104;8.228;2022-12-10T13:27:39;31.60;;;19.50;;
3343;SDS011;1685;53.104;8.228;2022-12-10T13:30:26;31.50;;;19.37;;
3343;SDS011;1685;53.104;8.228;2022-12-10T13:33:03;31.37;;;19.10;;
3343;SDS011;1685;53.104;8.228;2022-12-10T13:35:41;32.20;;;18.87;;
3343;SDS011;1685;53.104;8.228;2022-12-10T13:38:18;34.03;;;20.47;;
3343;SDS011;1685;53.104;8.228;2022-12-10T13:40:56;29.50;;;18.77;;
3343;SDS011;1685;53.104;8.228;2022-12-10T13:43:55;28.23;;;19.40;;
3343;SDS011;1685;53.104;8.228;2022-12-10T13:46:55;33.97;;;20.90;;
3343;SDS011;1685;53.104;8.228;2022-12-10T13:49:25;33.40;;;19.60;;
3343;SDS011;1685;53.104;8.228;2022-12-10T13:52:00;38.13;;;21.47;;
3343;SDS011;1685;53.104;8.228;2022-12-10T13:54:32;33.60;;;21.10;;
3343;SDS011;1685;53.104;8.228;2022-12-10T13:57:15;29.00;;;18.80;;
3343;SDS011;1685;53.104;8.228;2022-12-10T13:59:54;48.13;;;22.10;;
3343;SDS011;1685;53.104;8.228;2022-12-10T14:08:13;33.93;;;20.50;;
3343;SDS011;1685;53.104;8.228;2022-12-10T14:10:44;33.83;;;21.37;;
3343;SDS011;1685;53.104;8.228;2022-12-10T14:13:12;37.20;;;21.67;;
3343;SDS011;1685;53.104;8.228;2022-12-10T14:15:46;34.87;;;20.87;;
3343;SDS011;1685;53.104;8.228;2022-12-10T14:18:18;38.97;;;21.70;;
3343;SDS011;1685;53.104;8.228;2022-12-10T14:20:46;40.10;;;23.43;;
3343;SDS011;1685;53.104;8.228;2022-12-10T14:23:20;40.07;;;24.03;;
3343;SDS011;1685;53.104;8.228;2022-12-10T14:26:03;38.17;;;21.97;;
3343;SDS011;1685;53.104;8.228;2022-12-10T14:28:31;37.77;;;21.73;;
3343;SDS011;1685;53.104;8.228;2022-12-10T14:31:00;37.77;;;23.70;;
3343;SDS011;1685;53.104;8.228;2022-12-10T14:33:28;39.10;;;22.90;;
3343;SDS011;1685;53.104;8.228;2022-12-10T14:35:56;35.10;;;21.87;;
3343;SDS011;1685;53.104;8.228;2022-12-10T14:38:24;38.33;;;23.20;;
3343;SDS011;1685;53.104;8.228;2022-12-10T14:40:56;39.60;;;23.50;;
3343;SDS011;1685;53.104;8.228;2022-12-10T14:43:24;39.43;;;21.23;;
3343;SDS011;1685;53.104;8.228;2022-12-10T14:46:00;40.83;;;24.60;;
3343;SDS011;1685;53.104;8.228;2022-12-10T14:48:29;39.80;;;21.47;;
3343;SDS011;1685;53.104;8.228;2022-12-10T14:50:56;41.70;;;23.10;;
3343;SDS011;1685;53.104;8.228;2022-12-10T14:53:30;32.67;;;21.03;;
3343;SDS011;1685;53.104;8.228;2022-12-10T14:55:58;37.10;;;21.40;;
3343;SDS011;1685;53.104;8.228;2022-12-10T14:58:29;38.33;;;21.07;;
3343;SDS011;1685;53.104;8.228;2022-12-10T15:01:04;36.20;;;21.20;;
3343;SDS011;1685;53.104;8.228;2022-12-10T15:03:32;34.73;;;19.13;;
3343;SDS011;1685;53.104;8.228;2022-12-10T15:06:06;39.60;;;22.07;;
3343;SDS011;1685;53.104;8.228;2022-12-10T15:08:34;34.50;;;21.00;;
3343;SDS011;1685;53.104;8.228;2022-12-10T15:11:02;39.33;;;21.37;;
3343;SDS011;1685;53.104;8.228;2022-12-10T15:13:32;40.17;;;20.70;;
3343;SDS011;1685;53.104;8.228;2022-12-10T15:16:05;37.20;;;21.20;;